sensor_id;sensor_type;location;lat;lon;timestamp;pressure;altitude;pressure_sealevel;temperature;humidity
70015;BME280;57358;51.094;6.760;2022-12-18T00:01:18;102560.91;;;-6.43;100.00
70015;BME280;57358;51.094;6.760;2022-12-18T00:03:45;102548.22;;;-6.41;100.00
70015;BME280;57358;51.094;6.760;2022-12-18T00:06:12;102573.09;;;-6.37;100.00
70015;BME280;57358;51.094;6.760;2022-12-18T00:08:44;102561.78;;;-6.60;100.00
70015;BME280;57358;51.094;6.760;2022-12-18T00:11:12;102584.25;;;-6.53;100.00
70015;BME280;57358;51.094;6.760;2022-12-18T00:13:39;102540.94;;;-6.86;100.00
70015;BME280;57358;51.094;6.760;2022-12-18T00:16:10;102586.53;;;-6.59;100.00
70015;BME280;57358;51.094;6.760;2022-12-18T00:18:37;102505.72;;;-7.11;100.00
70015;BME280;57358;51.094;6.760;2022-12-18T00:21:07;102595.91;;;-6.58;100.00
70015;BME280;57358;51.094;6.760;2022-12-18T00:23:35;102584.75;;;-6.60;100.00
70015;BME280;57358;51.094;6.760;2022-12-18T00:26:05;102593.66;;;-6.52;100.00
70015;BME280;57358;51.094;6.760;2022-12-18T00:28:34;102606.38;;;-6.53;100.00
70015;BME280;57358;51.094;6.760;2022-12-18T00:31:05;102529.19;;;-7.00;100.00
70015;BME280;57358;51.094;6.760;2022-12-18T00:33:33;102481.91;;;-7.28;100.00
70015;BME280;57358;51.094;6.760;2022-12-18T00:36:07;102608.69;;;-6.58;100.00
70015;BME280;57358;51.094;6.760;2022-12-18T00:38:36;102553.94;;;-6.99;100.00
70015;BME280;57358;51.094;6.760;2022-12-18T00:41:03;102588.09;;;-6.79;100.00
70015;BME280;57358;51.094;6.760;2022-12-18T00:43:30;102506.44;;;-7.13;100.00
70015;BME280;57358;51.094;6.760;2022-12-18T00:45:56;102322.25;;;-8.29;100.00
70015;BME280;57358;51.094;6.760;2022-12-18T00:48:23;102339.09;;;-8.14;100.00
70015;BME280;57358;51.094;6.760;2022-12-18T00:50:50;102582.72;;;-6.67;100.00
70015;BME280;57358;51.094;6.760;2022-12-18T00:53:17;102588.78;;;-6.65;100.00
70015;BME280;57358;51.094;6.760;2022-12-18T00:55:45;102445.34;;;-7.63;100.00
70015;BME280;57358;51.094;6.760;2022-12-18T00:58:15;102587.53;;;-6.73;100.00
70015;BME280;57358;51.094;6.760;2022-12-18T01:00:42;102509.25;;;-7.25;100.00
70015;BME280;57358;51.094;6.760;2022-12-18T01:03:13;102594.44;;;-6.71;100.00
70015;BME280;57358;51.094;6.760;2022-12-18T01:05:40;102466.66;;;-7.44;100.00
70015;BME280;57358;51.094;6.760;2022-12-18T01:08:07;102530.28;;;-7.13;100.00
70015;BME280;57358;51.094;6.760;2022-12-18T01:10:34;102451.47;;;-7.59;100.00
70015;BME280;57358;51.094;6.760;2022-12-18T01:13:00;102489.78;;;-7.41;100.00
70015;BME280;57358;51.094;6.760;2022-12-18T01:15:26;102553.63;;;-7.05;100.00
70015;BME280;57358;51.094;6.760;2022-12-18T01:17:53;102526.47;;;-7.21;100.00
70015;BME280;57358;51.094;6.760;2022-12-18T01:20:20;102492.50;;;-7.54;100.00
70015;BME280;57358;51.094;6.760;2022-12-18T01:22:46;102474.03;;;-7.67;100.00
70015;BME280;57358;51.094;6.760;2022-12-18T01:25:13;102579.44;;;-6.99;100.00
70015;BME280;57358;51.094;6.760;2022-12-18T01:27:39;102402.22;;;-7.92;100.00
70015;BME280;57358;51.094;6.760;2022-12-18T01:30:06;102562.97;;;-6.88;100.00
70015;BME280;57358;51.094;6.760;2022-12-18T01:32:33;102555.88;;;-6.77;100.00
70015;BME280;57358;51.094;6.760;2022-12-18T01:34:59;102526.44;;;-7.05;100.00
70015;BME280;57358;51.094;6.760;2022-12-18T01:37:26;102502.94;;;-7.15;100.00
70015;BME280;57358;51.094;6.760;2022-12-18T01:39:52;102489.56;;;-7.28;100.00
70015;BME280;57358;51.094;6.760;2022-12-18T01:42:20;102586.78;;;-6.71;100.00
70015;BME280;57358;51.094;6.760;2022-12-18T01:47:43;101986.78;;;-10.24;100.00
70015;BME280;57358;51.094;6.760;2022-12-18T01:50:17;102577.97;;;-6.77;100.00
70015;BME280;57358;51.094;6.760;2022-12-18T01:53:10;102582.09;;;-6.79;100.00
70015;BME280;57358;51.094;6.760;2022-12-18T01:55:42;102543.63;;;-7.00;100.00
70015;BME280;57358;51.094;6.760;2022-12-18T01:58:09;102576.19;;;-6.78;100.00
70015;BME280;57358;51.094;6.760;2022-12-18T02:00:35;102575.84;;;-6.68;100.00
70015;BME280;57358;51.094;6.760;2022-12-18T02:03:02;102281.66;;;-8.44;100.00
70015;BME280;57358;51.094;6.760;2022-12-18T02:05:47;102542.69;;;-7.03;100.00
70015;BME280;57358;51.094;6.760;2022-12-18T02:09:12;102487.53;;;-7.35;100.00
70015;BME280;57358;51.094;6.760;2022-12-18T02:14:17;102495.44;;;-7.12;100.00
70015;BME280;57358;51.094;6.760;2022-12-18T02:16:48;102579.34;;;-6.66;100.00
70015;BME280;57358;51.094;6.760;2022-12-18T02:20:02;102575.84;;;-6.68;100.00
70015;BME280;57358;51.094;6.760;2022-12-18T02:28:29;102456.38;;;-7.46;100.00
70015;BME280;57358;51.094;6.760;2022-12-18T02:31:00;102583.88;;;-6.60;100.00
70015;BME280;57358;51.094;6.760;2022-12-18T02:33:29;102477.84;;;-7.24;100.00
70015;BME280;57358;51.094;6.760;2022-12-18T02:35:58;102568.91;;;-6.71;100.00
70015;BME280;57358;51.094;6.760;2022-12-18T02:38:26;102439.34;;;-7.47;100.00
70015;BME280;57358;51.094;6.760;2022-12-18T02:40:54;102571.47;;;-6.71;100.00
70015;BME280;57358;51.094;6.760;2022-12-18T02:43:20;102502.59;;;-7.05;100.00
70015;BME280;57358;51.094;6.760;2022-12-18T02:45:56;102554.69;;;-6.66;100.00
70015;BME280;57358;51.094;6.760;2022-12-18T02:48:27;102557.31;;;-6.64;100.00
70015;BME280;57358;51.094;6.760;2022-12-18T02:51:17;102484.19;;;-7.16;100.00
70015;BME280;57358;51.094;6.760;2022-12-18T02:54:05;102437.88;;;-7.24;100.00
70015;BME280;57358;51.094;6.760;2022-12-18T02:56:46;102537.34;;;-6.73;100.00
70015;BME280;57358;51.094;6.760;2022-12-18T02:59:46;102557.59;;;-6.58;100.00
70015;BME280;57358;51.094;6.760;2022-12-18T03:02:29;102564.56;;;-6.55;100.00
70015;BME280;57358;51.094;6.760;2022-12-18T03:05:19;102457.50;;;-7.23;100.00
70015;BME280;57358;51.094;6.760;2022-12-18T03:07:58;102558.66;;;-6.54;100.00
70015;BME280;57358;51.094;6.760;2022-12-18T03:10:29;102480.50;;;-6.87;100.00
70015;BME280;57358;51.094;6.760;2022-12-18T03:13:04;102447.03;;;-7.11;100.00
70015;BME280;57358;51.094;6.760;2022-12-18T03:15:36;102561.97;;;-6.37;100.00
70015;BME280;57358;51.094;6.760;2022-12-18T03:18:10;102533.09;;;-6.54;100.00
70015;BME280;57358;51.094;6.760;2022-12-18T03:20:41;102516.09;;;-6.72;100.00
70015;BME280;57358;51.094;6.760;2022-12-18T03:23:14;102467.28;;;-6.96;100.00
70015;BME280;57358;51.094;6.760;2022-12-18T03:25:42;102547.41;;;-6.40;100.00
70015;BME280;57358;51.094;6.760;2022-12-18T03:28:14;102457.91;;;-6.79;100.00
70015;BME280;57358;51.094;6.760;2022-12-18T03:30:43;102480.06;;;-6.60;100.00
70015;BME280;57358;51.094;6.760;2022-12-18T03:33:16;102383.03;;;-7.33;100.00
70015;BME280;57358;51.094;6.760;2022-12-18T03:35:46;102482.41;;;-6.65;100.00
70015;BME280;57358;51.094;6.760;2022-12-18T03:38:13;102539.59;;;-6.43;100.00
70015;BME280;57358;51.094;6.760;2022-12-18T03:45:54;102462.94;;;-6.80;100.00
70015;BME280;57358;51.094;6.760;2022-12-18T03:48:30;102527.78;;;-6.41;100.00
70015;BME280;57358;51.094;6.760;2022-12-18T03:51:05;102468.63;;;-6.68;100.00
70015;BME280;57358;51.094;6.760;2022-12-18T03:56:09;102459.88;;;-6.73;100.00
70015;BME280;57358;51.094;6.760;2022-12-18T03:58:38;102473.22;;;-6.61;100.00
70015;BME280;57358;51.094;6.760;2022-12-18T04:01:08;102534.31;;;-6.28;100.00
70015;BME280;57358;51.094;6.760;2022-12-18T04:03:37;102328.38;;;-7.56;100.00
70015;BME280;57358;51.094;6.760;2022-12-18T04:06:05;102456.06;;;-6.82;100.00
70015;BME280;57358;51.094;6.760;2022-12-18T04:08:32;102449.88;;;-6.87;100.00
70015;BME280;57358;51.094;6.760;2022-12-18T04:11:01;102467.16;;;-6.81;100.00
70015;BME280;57358;51.094;6.760;2022-12-18T04:13:37;102507.72;;;-6.51;100.00
70015;BME280;57358;51.094;6.760;2022-12-18T04:16:05;102532.94;;;-6.39;100.00
70015;BME280;57358;51.094;6.760;2022-12-18T04:18:32;102457.38;;;-6.90;100.00
70015;BME280;57358;51.094;6.760;2022-12-18T04:20:58;102523.75;;;-6.36;100.00
70015;BME280;57358;51.094;6.760;2022-12-18T04:23:25;102448.34;;;-6.83;100.00
70015;BME280;57358;51.094;6.760;2022-12-18T04:25:51;102406.72;;;-7.18;100.00
70015;BME280;57358;51.094;6.760;2022-12-18T04:28:17;102459.44;;;-6.83;100.00
70015;BME280;57358;51.094;6.760;2022-12-18T04:30:44;102491.81;;;-6.64;100.00
70015;BME280;57358;51.094;6.760;2022-12-18T04:33:12;102525.28;;;-6.39;100.00
70015;BME280;57358;51.094;6.760;2022-12-18T04:35:39;102529.72;;;-6.35;100.00
70015;BME280;57358;51.094;6.760;2022-12-18T04:38:07;102528.78;;;-6.37;100.00
70015;BME280;57358;51.094;6.760;2022-12-18T04:40:34;102478.91;;;-6.67;100.00
70015;BME280;57358;51.094;6.760;2022-12-18T04:43:01;102409.22;;;-7.19;100.00
70015;BME280;57358;51.094;6.760;2022-12-18T04:45:27;102417.66;;;-7.03;100.00
70015;BME280;57358;51.094;6.760;2022-12-18T04:47:54;102526.22;;;-6.37;100.00
70015;BME280;57358;51.094;6.760;2022-12-18T04:50:20;102478.97;;;-6.65;100.00
70015;BME280;57358;51.094;6.760;2022-12-18T04:52:46;102277.94;;;-7.80;100.00
70015;BME280;57358;51.094;6.760;2022-12-18T04:55:13;102464.00;;;-6.57;100.00
70015;BME280;57358;51.094;6.760;2022-12-18T04:57:39;102425.66;;;-6.77;100.00
70015;BME280;57358;51.094;6.760;2022-12-18T05:00:06;102380.25;;;-7.02;100.00
70015;BME280;57358;51.094;6.760;2022-12-18T05:02:33;102477.00;;;-6.53;100.00
70015;BME280;57358;51.094;6.760;2022-12-18T05:04:59;102512.75;;;-6.15;100.00
70015;BME280;57358;51.094;6.760;2022-12-18T05:07:26;102500.88;;;-6.15;100.00
70015;BME280;57358;51.094;6.760;2022-12-18T05:09:52;102496.56;;;-6.16;100.00
70015;BME280;57358;51.094;6.760;2022-12-18T05:12:18;102496.63;;;-6.14;100.00
70015;BME280;57358;51.094;6.760;2022-12-18T05:14:45;102224.44;;;-7.80;100.00
70015;BME280;57358;51.094;6.760;2022-12-18T05:17:11;102413.84;;;-6.75;100.00
70015;BME280;57358;51.094;6.760;2022-12-18T05:19:37;102341.78;;;-7.25;100.00
70015;BME280;57358;51.094;6.760;2022-12-18T05:22:04;102513.81;;;-6.30;100.00
70015;BME280;57358;51.094;6.760;2022-12-18T05:24:30;102407.16;;;-6.91;100.00
70015;BME280;57358;51.094;6.760;2022-12-18T05:26:57;102465.97;;;-6.52;100.00
70015;BME280;57358;51.094;6.760;2022-12-18T05:29:23;102485.31;;;-6.39;100.00
70015;BME280;57358;51.094;6.760;2022-12-18T05:31:49;102479.47;;;-6.54;100.00
70015;BME280;57358;51.094;6.760;2022-12-18T05:34:16;102494.88;;;-6.53;100.00
70015;BME280;57358;51.094;6.760;2022-12-18T05:36:42;102519.66;;;-6.32;100.00
70015;BME280;57358;51.094;6.760;2022-12-18T05:39:09;102521.56;;;-6.28;100.00
70015;BME280;57358;51.094;6.760;2022-12-18T05:41:36;102456.00;;;-6.65;100.00
70015;BME280;57358;51.094;6.760;2022-12-18T05:44:02;102486.47;;;-6.50;100.00
70015;BME280;57358;51.094;6.760;2022-12-18T05:46:30;102533.38;;;-6.30;100.00
70015;BME280;57358;51.094;6.760;2022-12-18T05:48:59;102539.31;;;-6.31;100.00
70015;BME280;57358;51.094;6.760;2022-12-18T05:51:27;102539.44;;;-6.28;100.00
70015;BME280;57358;51.094;6.760;2022-12-18T05:53:54;102398.94;;;-7.03;100.00
70015;BME280;57358;51.094;6.760;2022-12-18T05:56:22;102516.31;;;-6.31;100.00
70015;BME280;57358;51.094;6.760;2022-12-18T05:58:52;102545.56;;;-6.25;100.00
70015;BME280;57358;51.094;6.760;2022-12-18T06:01:22;102568.34;;;-6.11;100.00
70015;BME280;57358;51.094;6.760;2022-12-18T06:03:49;102566.72;;;-6.09;100.00
70015;BME280;57358;51.094;6.760;2022-12-18T06:08:44;102551.81;;;-6.18;100.00
70015;BME280;57358;51.094;6.760;2022-12-18T06:11:12;102563.34;;;-6.08;100.00
70015;BME280;57358;51.094;6.760;2022-12-18T06:13:39;102566.78;;;-6.08;100.00
70015;BME280;57358;51.094;6.760;2022-12-18T06:16:07;102549.47;;;-6.13;100.00
70015;BME280;57358;51.094;6.760;2022-12-18T06:18:34;102488.00;;;-6.54;100.00
70015;BME280;57358;51.094;6.760;2022-12-18T06:21:00;102578.22;;;-5.99;100.00
70015;BME280;57358;51.094;6.760;2022-12-18T06:23:28;102533.88;;;-6.19;100.00
70015;BME280;57358;51.094;6.760;2022-12-18T06:25:54;102512.75;;;-6.35;100.00
70015;BME280;57358;51.094;6.760;2022-12-18T06:28:21;102584.81;;;-6.05;100.00
70015;BME280;57358;51.094;6.760;2022-12-18T06:30:47;102474.09;;;-6.60;100.00
70015;BME280;57358;51.094;6.760;2022-12-18T06:33:15;102536.75;;;-6.31;100.00
70015;BME280;57358;51.094;6.760;2022-12-18T06:35:42;102539.34;;;-6.30;100.00
70015;BME280;57358;51.094;6.760;2022-12-18T06:38:08;102462.06;;;-6.63;100.00
70015;BME280;57358;51.094;6.760;2022-12-18T06:40:37;102548.84;;;-6.09;100.00
70015;BME280;57358;51.094;6.760;2022-12-18T06:43:04;102532.31;;;-6.16;100.00
70015;BME280;57358;51.094;6.760;2022-12-18T06:45:30;102515.66;;;-6.27;100.00
70015;BME280;57358;51.094;6.760;2022-12-18T06:47:57;102542.16;;;-6.06;100.00
70015;BME280;57358;51.094;6.760;2022-12-18T06:50:24;102471.78;;;-6.36;100.00
70015;BME280;57358;51.094;6.760;2022-12-18T06:52:50;102449.78;;;-6.52;100.00
70015;BME280;57358;51.094;6.760;2022-12-18T06:55:17;102528.16;;;-5.94;100.00
70015;BME280;57358;51.094;6.760;2022-12-18T06:57:43;102528.94;;;-5.97;100.00
70015;BME280;57358;51.094;6.760;2022-12-18T07:00:10;102500.31;;;-6.27;100.00
70015;BME280;57358;51.094;6.760;2022-12-18T07:02:36;102332.59;;;-7.21;100.00
70015;BME280;57358;51.094;6.760;2022-12-18T07:05:03;102518.97;;;-6.10;100.00
70015;BME280;57358;51.094;6.760;2022-12-18T07:07:36;102533.16;;;-5.97;100.00
70015;BME280;57358;51.094;6.760;2022-12-18T07:10:02;102477.75;;;-6.36;100.00
70015;BME280;57358;51.094;6.760;2022-12-18T07:12:29;102445.19;;;-6.59;100.00
70015;BME280;57358;51.094;6.760;2022-12-18T07:14:55;102539.69;;;-6.04;100.00
70015;BME280;57358;51.094;6.760;2022-12-18T07:17:22;102496.19;;;-6.24;100.00
70015;BME280;57358;51.094;6.760;2022-12-18T07:19:48;102545.94;;;-5.97;100.00
70015;BME280;57358;51.094;6.760;2022-12-18T07:22:15;102442.41;;;-6.64;100.00
70015;BME280;57358;51.094;6.760;2022-12-18T07:24:41;102476.63;;;-6.43;100.00
70015;BME280;57358;51.094;6.760;2022-12-18T07:27:07;102532.22;;;-5.99;100.00
70015;BME280;57358;51.094;6.760;2022-12-18T07:29:35;102498.16;;;-6.18;100.00
70015;BME280;57358;51.094;6.760;2022-12-18T07:32:01;102531.34;;;-6.00;100.00
70015;BME280;57358;51.094;6.760;2022-12-18T07:34:28;102533.78;;;-6.03;100.00
70015;BME280;57358;51.094;6.760;2022-12-18T07:36:54;102522.00;;;-5.99;100.00
70015;BME280;57358;51.094;6.760;2022-12-18T07:39:21;102532.22;;;-5.99;100.00
70015;BME280;57358;51.094;6.760;2022-12-18T07:41:47;102552.81;;;-5.96;100.00
70015;BME280;57358;51.094;6.760;2022-12-18T07:44:33;102471.00;;;-6.16;100.00
70015;BME280;57358;51.094;6.760;2022-12-18T07:47:00;102521.13;;;-5.81;100.00
70015;BME280;57358;51.094;6.760;2022-12-18T07:49:27;102438.06;;;-6.29;100.00
70015;BME280;57358;51.094;6.760;2022-12-18T07:51:55;102525.47;;;-5.78;100.00
70015;BME280;57358;51.094;6.760;2022-12-18T07:54:23;102441.41;;;-6.30;100.00
70015;BME280;57358;51.094;6.760;2022-12-18T07:56:50;102447.22;;;-6.15;100.00
70015;BME280;57358;51.094;6.760;2022-12-18T07:59:17;102434.16;;;-6.02;100.00
70015;BME280;57358;51.094;6.760;2022-12-18T08:01:43;102445.16;;;-5.83;100.00
70015;BME280;57358;51.094;6.760;2022-12-18T08:04:12;102472.97;;;-5.50;100.00
70015;BME280;57358;51.094;6.760;2022-12-18T08:06:38;102435.81;;;-5.62;100.00
70015;BME280;57358;51.094;6.760;2022-12-18T08:09:11;102140.75;;;-7.33;100.00
70015;BME280;57358;51.094;6.760;2022-12-18T08:11:37;102482.75;;;-5.21;100.00
70015;BME280;57358;51.094;6.760;2022-12-18T08:14:04;102493.06;;;-5.19;100.00
70015;BME280;57358;51.094;6.760;2022-12-18T08:16:30;102411.06;;;-5.63;100.00
70015;BME280;57358;51.094;6.760;2022-12-18T08:18:57;102484.88;;;-5.10;100.00
70015;BME280;57358;51.094;6.760;2022-12-18T08:21:25;102450.41;;;-5.18;100.00
70015;BME280;57358;51.094;6.760;2022-12-18T08:23:54;102352.81;;;-5.70;100.00
70015;BME280;57358;51.094;6.760;2022-12-18T08:26:22;102401.28;;;-5.31;100.00
70015;BME280;57358;51.094;6.760;2022-12-18T08:28:49;102361.72;;;-5.60;100.00
70015;BME280;57358;51.094;6.760;2022-12-18T08:31:17;102465.19;;;-4.90;100.00
70015;BME280;57358;51.094;6.760;2022-12-18T08:33:44;102409.22;;;-5.25;100.00
70015;BME280;57358;51.094;6.760;2022-12-18T08:36:12;102408.78;;;-5.14;100.00
70015;BME280;57358;51.094;6.760;2022-12-18T08:38:38;102348.69;;;-5.45;100.00
70015;BME280;57358;51.094;6.760;2022-12-18T08:41:07;102456.34;;;-4.76;100.00
70015;BME280;57358;51.094;6.760;2022-12-18T08:43:33;102402.44;;;-5.02;100.00
70015;BME280;57358;51.094;6.760;2022-12-18T08:46:19;102471.44;;;-4.61;100.00
70015;BME280;57358;51.094;6.760;2022-12-18T08:48:46;102352.69;;;-5.08;100.00
70015;BME280;57358;51.094;6.760;2022-12-18T08:51:15;102428.19;;;-4.53;100.00
70015;BME280;57358;51.094;6.760;2022-12-18T08:53:42;102434.13;;;-4.32;100.00
70015;BME280;57358;51.094;6.760;2022-12-18T08:56:09;102166.53;;;-5.82;100.00
70015;BME280;57358;51.094;6.760;2022-12-18T08:58:35;102332.50;;;-4.78;100.00
70015;BME280;57358;51.094;6.760;2022-12-18T09:01:07;102438.50;;;-4.05;100.00
70015;BME280;57358;51.094;6.760;2022-12-18T09:03:35;102410.91;;;-4.12;100.00
70015;BME280;57358;51.094;6.760;2022-12-18T09:06:03;102331.25;;;-4.65;100.00
70015;BME280;57358;51.094;6.760;2022-12-18T09:08:30;102395.59;;;-4.11;100.00
70015;BME280;57358;51.094;6.760;2022-12-18T09:10:56;102248.19;;;-4.96;100.00
70015;BME280;57358;51.094;6.760;2022-12-18T09:13:22;102313.66;;;-4.56;100.00
70015;BME280;57358;51.094;6.760;2022-12-18T09:15:51;102385.31;;;-4.11;100.00
70015;BME280;57358;51.094;6.760;2022-12-18T09:18:20;102406.34;;;-3.95;100.00
70015;BME280;57358;51.094;6.760;2022-12-18T09:20:46;102393.53;;;-3.95;100.00
70015;BME280;57358;51.094;6.760;2022-12-18T09:23:13;102415.78;;;-3.70;100.00
70015;BME280;57358;51.094;6.760;2022-12-18T09:25:40;102422.06;;;-3.62;100.00
70015;BME280;57358;51.094;6.760;2022-12-18T09:28:11;102295.06;;;-4.26;100.00
70015;BME280;57358;51.094;6.760;2022-12-18T09:30:39;102275.56;;;-4.21;100.00
70015;BME280;57358;51.094;6.760;2022-12-18T09:33:06;102373.66;;;-3.51;100.00
70015;BME280;57358;51.094;6.760;2022-12-18T09:35:39;102306.34;;;-3.70;99.80
70015;BME280;57358;51.094;6.760;2022-12-18T09:38:06;102274.53;;;-3.75;98.77
70015;BME280;57358;51.094;6.760;2022-12-18T09:40:44;102361.94;;;-3.16;98.68
70015;BME280;57358;51.094;6.760;2022-12-18T09:43:25;102295.91;;;-3.49;97.91
70015;BME280;57358;51.094;6.760;2022-12-18T09:46:03;102354.66;;;-3.02;98.11
70015;BME280;57358;51.094;6.760;2022-12-18T09:48:35;102351.38;;;-2.98;96.27
70015;BME280;57358;51.094;6.760;2022-12-18T09:51:19;102340.59;;;-2.85;95.64
70015;BME280;57358;51.094;6.760;2022-12-18T09:53:53;102241.53;;;-3.35;95.64
70015;BME280;57358;51.094;6.760;2022-12-18T09:56:22;102337.53;;;-2.73;95.38
70015;BME280;57358;51.094;6.760;2022-12-18T10:01:21;102271.50;;;-3.06;93.73
70015;BME280;57358;51.094;6.760;2022-12-18T10:03:50;102250.75;;;-3.13;93.76
70015;BME280;57358;51.094;6.760;2022-12-18T10:12:06;102312.56;;;-2.47;92.48
70015;BME280;57358;51.094;6.760;2022-12-18T10:15:01;102151.53;;;-3.42;91.07
70015;BME280;57358;51.094;6.760;2022-12-18T10:23:10;102248.06;;;-2.56;89.32
70015;BME280;57358;51.094;6.760;2022-12-18T10:25:44;102281.38;;;-2.27;89.64
70015;BME280;57358;51.094;6.760;2022-12-18T10:28:16;102265.88;;;-2.30;88.28
70015;BME280;57358;51.094;6.760;2022-12-18T10:30:44;102173.75;;;-2.80;88.05
70015;BME280;57358;51.094;6.760;2022-12-18T10:33:13;102222.94;;;-2.34;86.52
70015;BME280;57358;51.094;6.760;2022-12-18T10:35:41;102250.13;;;-2.09;86.52
70015;BME280;57358;51.094;6.760;2022-12-18T10:40:54;102231.56;;;-1.97;86.52
70015;BME280;57358;51.094;6.760;2022-12-18T10:43:29;102154.97;;;-2.44;86.28
70015;BME280;57358;51.094;6.760;2022-12-18T10:48:30;102161.31;;;-2.30;86.31
70015;BME280;57358;51.094;6.760;2022-12-18T10:50:57;102022.22;;;-3.13;85.82
70015;BME280;57358;51.094;6.760;2022-12-18T10:53:40;102171.00;;;-2.19;85.14
70015;BME280;57358;51.094;6.760;2022-12-18T10:56:08;102088.72;;;-2.56;84.86
70015;BME280;57358;51.094;6.760;2022-12-18T10:58:37;102130.66;;;-2.21;85.28
70015;BME280;57358;51.094;6.760;2022-12-18T11:01:08;102184.69;;;-1.84;84.98
70015;BME280;57358;51.094;6.760;2022-12-18T11:03:40;102075.34;;;-2.41;85.07
70015;BME280;57358;51.094;6.760;2022-12-18T11:06:10;102168.38;;;-1.85;84.82
70015;BME280;57358;51.094;6.760;2022-12-18T11:08:38;102169.41;;;-1.78;85.24
70015;BME280;57358;51.094;6.760;2022-12-18T11:11:15;102127.47;;;-2.12;84.18
70015;BME280;57358;51.094;6.760;2022-12-18T11:14:02;102132.81;;;-2.03;85.41
70015;BME280;57358;51.094;6.760;2022-12-18T11:16:33;102096.38;;;-2.21;84.45
70015;BME280;57358;51.094;6.760;2022-12-18T11:19:20;102145.88;;;-1.93;84.38
70015;BME280;57358;51.094;6.760;2022-12-18T11:21:48;102166.38;;;-1.58;84.46
70015;BME280;57358;51.094;6.760;2022-12-18T11:24:27;102154.28;;;-1.63;83.21
70015;BME280;57358;51.094;6.760;2022-12-18T11:26:58;102142.31;;;-1.61;84.01
70015;BME280;57358;51.094;6.760;2022-12-18T11:29:37;102073.03;;;-1.92;83.69
70015;BME280;57358;51.094;6.760;2022-12-18T11:34:51;102133.19;;;-1.45;83.36
70015;BME280;57358;51.094;6.760;2022-12-18T11:37:24;102101.81;;;-1.69;83.33
70015;BME280;57358;51.094;6.760;2022-12-18T11:39:56;102093.56;;;-1.53;82.48
70015;BME280;57358;51.094;6.760;2022-12-18T11:42:54;102107.38;;;-1.49;82.43
70015;BME280;57358;51.094;6.760;2022-12-18T11:45:31;102097.91;;;-1.50;82.48
70015;BME280;57358;51.094;6.760;2022-12-18T11:48:19;102049.44;;;-1.71;81.96
70015;BME280;57358;51.094;6.760;2022-12-18T11:50:55;102107.63;;;-1.35;82.49
70015;BME280;57358;51.094;6.760;2022-12-18T11:53:24;102118.75;;;-1.36;82.40
70015;BME280;57358;51.094;6.760;2022-12-18T11:56:18;102089.38;;;-1.48;81.67
70015;BME280;57358;51.094;6.760;2022-12-18T11:59:02;102004.47;;;-1.90;81.54
70015;BME280;57358;51.094;6.760;2022-12-18T12:01:55;102073.97;;;-1.46;81.97
70015;BME280;57358;51.094;6.760;2022-12-18T12:04:46;102075.00;;;-1.38;81.72
70015;BME280;57358;51.094;6.760;2022-12-18T12:07:37;102039.41;;;-1.57;80.51
70015;BME280;57358;51.094;6.760;2022-12-18T12:16:03;102020.69;;;-1.49;80.92
70015;BME280;57358;51.094;6.760;2022-12-18T12:24:10;101943.47;;;-1.96;80.39
70015;BME280;57358;51.094;6.760;2022-12-18T12:32:40;102049.22;;;-1.38;81.39
70015;BME280;57358;51.094;6.760;2022-12-18T12:35:37;102044.09;;;-1.36;80.82
70015;BME280;57358;51.094;6.760;2022-12-18T12:38:11;102040.53;;;-1.43;81.01
70015;BME280;57358;51.094;6.760;2022-12-18T12:40:45;102010.13;;;-1.64;80.99
70015;BME280;57358;51.094;6.760;2022-12-18T12:43:33;101902.69;;;-2.20;81.79
70015;BME280;57358;51.094;6.760;2022-12-18T12:46:07;102013.75;;;-1.53;80.96
70015;BME280;57358;51.094;6.760;2022-12-18T12:48:47;101999.03;;;-1.60;80.49
70015;BME280;57358;51.094;6.760;2022-12-18T12:51:21;102027.63;;;-1.46;80.83
70015;BME280;57358;51.094;6.760;2022-12-18T12:53:49;101956.47;;;-1.87;80.10
70015;BME280;57358;51.094;6.760;2022-12-18T12:56:18;101993.03;;;-1.59;81.12
70015;BME280;57358;51.094;6.760;2022-12-18T12:59:22;102033.69;;;-1.43;81.59
70015;BME280;57358;51.094;6.760;2022-12-18T13:02:06;102024.28;;;-1.42;80.91
70015;BME280;57358;51.094;6.760;2022-12-18T13:04:52;102017.34;;;-1.45;80.61
70015;BME280;57358;51.094;6.760;2022-12-18T13:07:38;101949.78;;;-1.78;80.48
70015;BME280;57358;51.094;6.760;2022-12-18T13:10:38;102019.13;;;-1.42;80.43
70015;BME280;57358;51.094;6.760;2022-12-18T13:13:09;102000.13;;;-1.47;80.61
70015;BME280;57358;51.094;6.760;2022-12-18T13:15:41;101990.72;;;-1.45;80.95
70015;BME280;57358;51.094;6.760;2022-12-18T13:18:14;101925.72;;;-1.82;80.69
70015;BME280;57358;51.094;6.760;2022-12-18T13:21:01;101970.72;;;-1.58;81.18
70015;BME280;57358;51.094;6.760;2022-12-18T13:23:38;101895.28;;;-2.03;80.69
70015;BME280;57358;51.094;6.760;2022-12-18T13:31:00;101965.59;;;-1.58;81.75
70015;BME280;57358;51.094;6.760;2022-12-18T13:36:09;101962.00;;;-1.67;81.32
70015;BME280;57358;51.094;6.760;2022-12-18T13:38:39;101960.28;;;-1.68;81.68
70015;BME280;57358;51.094;6.760;2022-12-18T13:43:41;101956.81;;;-1.70;81.91
70015;BME280;57358;51.094;6.760;2022-12-18T13:46:22;101928.88;;;-1.95;82.73
70015;BME280;57358;51.094;6.760;2022-12-18T13:49:03;101958.38;;;-1.76;82.69
70015;BME280;57358;51.094;6.760;2022-12-18T13:51:33;101908.13;;;-2.05;82.44
70015;BME280;57358;51.094;6.760;2022-12-18T13:54:02;101970.53;;;-1.69;82.96
70015;BME280;57358;51.094;6.760;2022-12-18T13:56:31;101963.66;;;-1.72;82.53
70015;BME280;57358;51.094;6.760;2022-12-18T14:01:51;101958.53;;;-1.70;82.61
70015;BME280;57358;51.094;6.760;2022-12-18T14:04:20;101948.09;;;-1.76;82.94
70015;BME280;57358;51.094;6.760;2022-12-18T14:06:49;101956.63;;;-1.79;83.25
70015;BME280;57358;51.094;6.760;2022-12-18T14:09:23;101782.31;;;-2.85;83.06
70015;BME280;57358;51.094;6.760;2022-12-18T14:11:52;101874.25;;;-2.28;83.17
70015;BME280;57358;51.094;6.760;2022-12-18T14:14:45;101855.94;;;-2.43;83.41
70015;BME280;57358;51.094;6.760;2022-12-18T14:17:15;101941.81;;;-1.91;84.42